createdAt,value
2022-12-23T00:01:27.272Z,2.60
2022-12-23T00:06:30.790Z,2.51
2022-12-23T00:11:34.505Z,2.56
2022-12-23T00:16:39.578Z,2.66
2022-12-23T00:21:42.992Z,2.68
2022-12-23T00:26:46.675Z,2.59
2022-12-23T00:31:51.505Z,2.51
2022-12-23T00:36:55.039Z,2.54
2022-12-23T00:42:16.053Z,2.61
2022-12-23T00:47:38.274Z,2.56
2022-12-23T00:52:41.680Z,2.62
2022-12-23T00:57:45.151Z,2.56
2022-12-23T01:03:03.852Z,2.52
2022-12-23T01:08:09.168Z,2.60
2022-12-23T01:13:12.600Z,2.65
2022-12-23T01:18:17.715Z,2.80
2022-12-23T01:23:21.094Z,2.62
2022-12-23T01:28:24.685Z,2.48
2022-12-23T01:33:29.706Z,2.40
2022-12-23T01:38:33.150Z,2.64
2022-12-23T01:43:48.153Z,2.84
2022-12-23T01:48:54.212Z,3.00
2022-12-23T01:54:01.271Z,3.07
2022-12-23T01:59:11.413Z,3.22
2022-12-23T02:04:20.752Z,3.41
2022-12-23T02:09:26.944Z,3.27
2022-12-23T02:15:02.841Z,3.31
2022-12-23T02:20:52.184Z,3.16
2022-12-23T02:26:16.369Z,2.64
2022-12-23T02:31:27.931Z,2.54
2022-12-23T02:36:40.685Z,2.59
2022-12-23T02:41:54.674Z,2.57
2022-12-23T02:47:05.671Z,2.44
2022-12-23T02:52:14.522Z,2.30
2022-12-23T02:57:21.767Z,2.16
2022-12-23T03:02:26.709Z,2.02
2022-12-23T03:07:33.900Z,1.70
2022-12-23T03:12:50.818Z,1.97
2022-12-23T03:18:04.649Z,2.20
2022-12-23T03:23:16.664Z,2.29
2022-12-23T03:28:27.819Z,2.36
2022-12-23T03:33:36.937Z,2.41
2022-12-23T03:38:43.454Z,2.49
2022-12-23T03:43:51.782Z,2.73
2022-12-23T03:49:00.867Z,2.81
2022-12-23T03:54:09.385Z,2.71
2022-12-23T03:59:18.709Z,2.62
2022-12-23T04:04:28.937Z,2.70
2022-12-23T04:09:32.666Z,2.79
2022-12-23T04:14:37.773Z,2.87
2022-12-23T04:19:42.669Z,2.97
2022-12-23T04:24:46.105Z,3.06
2022-12-23T04:29:49.554Z,3.18
2022-12-23T04:34:54.332Z,3.11
2022-12-23T04:39:57.769Z,3.09
2022-12-23T04:45:01.170Z,2.95
2022-12-23T04:50:09.878Z,2.99
2022-12-23T04:55:14.128Z,3.05
2022-12-23T05:00:18.670Z,3.12
2022-12-23T05:05:23.481Z,3.04
2022-12-23T05:10:27.261Z,3.00
2022-12-23T05:15:33.141Z,2.96
2022-12-23T05:20:38.279Z,2.87
2022-12-23T05:25:41.754Z,2.89
2022-12-23T05:30:45.223Z,3.03
2022-12-23T05:35:50.127Z,3.15
2022-12-23T05:40:53.979Z,3.20
2022-12-23T05:45:57.487Z,3.11
2022-12-23T05:51:02.321Z,3.26
2022-12-23T05:56:07.150Z,3.36
2022-12-23T06:01:10.530Z,3.50
2022-12-23T06:06:15.681Z,3.63
2022-12-23T06:11:19.164Z,3.66
2022-12-23T06:16:22.656Z,3.81
2022-12-23T06:21:28.249Z,4.06
2022-12-23T06:26:31.993Z,4.19
2022-12-23T06:31:35.403Z,4.12
2022-12-23T06:36:40.403Z,3.93
2022-12-23T06:41:43.823Z,3.95
2022-12-23T06:46:47.303Z,4.10
2022-12-23T06:51:52.085Z,4.21
2022-12-23T06:56:55.768Z,4.34
2022-12-23T07:01:59.788Z,4.65
2022-12-23T07:07:05.331Z,4.96
2022-12-23T07:12:09.351Z,5.27
2022-12-23T07:17:13.071Z,5.42
2022-12-23T07:22:18.245Z,5.69
2022-12-23T07:27:21.955Z,5.74
2022-12-23T07:32:25.405Z,5.95
2022-12-23T07:37:30.264Z,6.33
2022-12-23T07:42:44.800Z,6.76
2022-12-23T07:47:54.003Z,7.09
2022-12-23T07:52:58.992Z,7.51
2022-12-23T07:58:02.670Z,7.80
2022-12-23T08:03:06.216Z,7.98
2022-12-23T08:08:11.094Z,8.03
2022-12-23T08:13:14.535Z,8.01
2022-12-23T08:18:17.944Z,7.86
2022-12-23T08:23:24.923Z,7.95
2022-12-23T08:28:28.940Z,8.10
2022-12-23T08:33:32.392Z,8.00
2022-12-23T08:38:38.061Z,8.02
2022-12-23T08:43:41.565Z,8.09
2022-12-23T08:48:49.170Z,8.01
2022-12-23T08:54:00.166Z,8.18
2022-12-23T08:59:05.293Z,8.20
2022-12-23T09:04:09.387Z,8.37
2022-12-23T09:09:15.884Z,8.42
2022-12-23T09:14:19.399Z,8.64
2022-12-23T09:19:23.066Z,8.81
2022-12-23T09:24:27.859Z,8.99
2022-12-23T09:29:31.262Z,9.30
2022-12-23T09:34:34.757Z,9.59
2022-12-23T09:39:39.648Z,10.25
2022-12-23T09:45:03.244Z,10.02
2022-12-23T09:50:19.443Z,10.10
2022-12-23T09:55:30.374Z,11.28
2022-12-23T10:00:39.959Z,11.91
2022-12-23T10:05:57.608Z,12.75
2022-12-23T10:11:06.514Z,12.13
2022-12-23T10:16:15.657Z,11.60
2022-12-23T10:21:26.050Z,11.41
2022-12-23T10:26:36.016Z,11.17
2022-12-23T10:31:46.521Z,10.97
2022-12-23T10:36:59.406Z,10.93
2022-12-23T10:42:13.735Z,10.74
2022-12-23T10:47:26.825Z,10.61
2022-12-23T10:52:35.232Z,10.50
2022-12-23T10:57:40.294Z,10.52
2022-12-23T11:02:51.511Z,10.31
2022-12-23T11:07:57.259Z,10.45
2022-12-23T11:13:02.744Z,10.57
2022-12-23T11:18:17.775Z,10.56
2022-12-23T11:23:26.630Z,10.46
2022-12-23T11:28:32.670Z,10.25
2022-12-23T11:33:39.778Z,10.31
2022-12-23T11:38:51.513Z,10.30
2022-12-23T11:44:00.453Z,10.16
2022-12-23T11:49:19.046Z,10.14
2022-12-23T11:54:22.473Z,10.07
2022-12-23T11:59:34.999Z,9.98
2022-12-23T12:04:39.111Z,9.90
2022-12-23T12:09:45.940Z,9.89
2022-12-23T12:14:53.102Z,9.62
2022-12-23T12:20:06.152Z,9.67
2022-12-23T12:25:22.253Z,9.57
2022-12-23T12:30:34.239Z,9.57
2022-12-23T12:35:43.889Z,9.50
2022-12-23T12:40:51.152Z,9.45
2022-12-23T12:46:07.888Z,9.38
2022-12-23T12:51:22.270Z,9.29
2022-12-23T12:56:31.681Z,9.28
2022-12-23T13:01:47.486Z,9.17
2022-12-23T13:07:04.037Z,9.13
2022-12-23T13:12:16.610Z,9.08
2022-12-23T13:17:26.271Z,9.01
2022-12-23T13:22:33.885Z,8.90
2022-12-23T13:27:45.828Z,8.79
2022-12-23T13:33:13.720Z,8.65
2022-12-23T13:38:29.580Z,8.44
2022-12-23T13:43:41.959Z,8.27
2022-12-23T13:48:53.770Z,8.27
2022-12-23T13:54:05.042Z,8.25
2022-12-23T13:59:11.703Z,8.21
2022-12-23T14:04:37.675Z,8.16
2022-12-23T14:09:41.096Z,8.18
2022-12-23T14:14:58.986Z,8.08
2022-12-23T14:20:20.989Z,8.06
2022-12-23T14:25:52.001Z,8.07
2022-12-23T14:30:57.405Z,8.07
2022-12-23T14:36:23.247Z,8.03
2022-12-23T14:41:39.117Z,8.00
2022-12-23T14:46:57.915Z,7.87
2022-12-23T14:52:36.803Z,7.81
2022-12-23T14:57:45.170Z,7.72
2022-12-23T15:02:48.746Z,7.57
2022-12-23T15:07:57.041Z,7.42
2022-12-23T15:13:06.131Z,7.31
2022-12-23T15:18:14.160Z,7.24
2022-12-23T15:23:18.719Z,7.14
2022-12-23T15:28:32.689Z,7.09
2022-12-23T15:34:02.963Z,7.00
2022-12-23T15:39:02.833Z,6.74
2022-12-23T15:44:14.322Z,6.61
2022-12-23T15:49:19.479Z,6.38
2022-12-23T15:54:28.512Z,6.13
2022-12-23T15:59:37.901Z,6.13
2022-12-23T16:04:41.351Z,6.09
2022-12-23T16:09:44.969Z,6.02
2022-12-23T16:14:55.943Z,5.92
2022-12-23T16:20:22.757Z,5.83
2022-12-23T16:25:28.513Z,5.62
2022-12-23T16:30:36.626Z,5.48
2022-12-23T16:35:42.009Z,5.54
2022-12-23T16:40:48.252Z,5.42
2022-12-23T16:45:56.205Z,5.22
2022-12-23T16:51:01.034Z,5.12
2022-12-23T16:56:05.083Z,4.78
2022-12-23T17:01:13.878Z,4.37
2022-12-23T17:06:18.536Z,4.32
2022-12-23T17:11:25.280Z,4.41
2022-12-23T17:16:30.295Z,4.30
2022-12-23T17:21:37.176Z,4.05
2022-12-23T17:26:41.100Z,4.01
2022-12-23T17:31:46.994Z,3.81
2022-12-23T17:36:51.403Z,3.83
2022-12-23T17:41:55.460Z,3.75
2022-12-23T17:47:00.334Z,3.64
2022-12-23T17:52:07.004Z,3.22
2022-12-23T17:57:19.350Z,2.94
2022-12-23T18:02:26.986Z,2.92
2022-12-23T18:07:30.494Z,2.99
2022-12-23T18:12:36.775Z,3.04
2022-12-23T18:17:41.865Z,3.09
2022-12-23T18:22:46.749Z,2.91
2022-12-23T18:27:50.609Z,2.80
2022-12-23T18:32:55.474Z,2.69
2022-12-23T18:38:00.077Z,2.86
2022-12-23T18:43:03.930Z,3.00
2022-12-23T18:48:10.685Z,3.06
2022-12-23T18:53:23.857Z,3.06
2022-12-23T18:58:28.454Z,3.08
2022-12-23T19:03:33.522Z,3.02
2022-12-23T19:08:38.723Z,2.94
2022-12-23T19:13:42.216Z,2.93
2022-12-23T19:18:48.109Z,2.90
2022-12-23T19:23:51.579Z,2.58
2022-12-23T19:28:55.111Z,2.44
2022-12-23T19:34:01.474Z,2.50
2022-12-23T19:39:05.239Z,2.43
2022-12-23T19:44:08.757Z,2.50
2022-12-23T19:49:19.489Z,2.39
2022-12-23T19:54:23.721Z,2.50
2022-12-23T19:59:27.321Z,2.29
2022-12-23T20:04:32.222Z,2.29
2022-12-23T20:09:35.851Z,2.44
2022-12-23T20:14:39.370Z,2.46
2022-12-23T20:19:46.395Z,2.56
2022-12-23T20:24:50.155Z,2.40
2022-12-23T20:29:53.642Z,2.35
2022-12-23T20:34:58.449Z,2.39
2022-12-23T20:40:01.882Z,2.26
2022-12-23T20:45:07.921Z,2.11
2022-12-23T20:50:12.751Z,1.87
2022-12-23T20:55:16.318Z,1.99
2022-12-23T21:00:20.149Z,1.94
2022-12-23T21:05:25.007Z,1.74
2022-12-23T21:10:28.748Z,1.59
2022-12-23T21:15:32.654Z,1.64
2022-12-23T21:20:39.223Z,1.47
2022-12-23T21:25:42.636Z,1.24
2022-12-23T21:30:46.092Z,1.44
2022-12-23T21:35:50.938Z,1.73
2022-12-23T21:41:01.121Z,1.93
2022-12-23T21:46:07.078Z,2.04
2022-12-23T21:51:15.475Z,2.02
2022-12-23T21:56:21.406Z,1.86
2022-12-23T22:01:25.339Z,1.74
2022-12-23T22:06:32.030Z,1.70
2022-12-23T22:11:37.640Z,1.66
2022-12-23T22:16:41.217Z,1.79
2022-12-23T22:21:46.079Z,1.68
2022-12-23T22:26:49.498Z,1.62
2022-12-23T22:31:53.832Z,1.57
2022-12-23T22:36:58.995Z,1.65
2022-12-23T22:42:03.785Z,1.69
2022-12-23T22:47:07.323Z,1.71
2022-12-23T22:52:13.037Z,1.77
2022-12-23T22:57:16.408Z,1.89
2022-12-23T23:02:19.914Z,2.19
2022-12-23T23:07:24.795Z,2.88
2022-12-23T23:12:28.567Z,3.19
2022-12-23T23:17:32.029Z,3.41
2022-12-23T23:22:36.943Z,3.49
2022-12-23T23:27:40.301Z,3.75
2022-12-23T23:32:43.840Z,3.75
2022-12-23T23:37:48.799Z,3.85
2022-12-23T23:42:52.221Z,3.98
2022-12-23T23:47:56.527Z,3.90
2022-12-23T23:53:01.688Z,3.82
2022-12-23T23:58:05.393Z,3.71
